sensor_id;sensor_type;location;lat;lon;timestamp;P1;durP1;ratioP1;P2;durP2;ratioP2
8610;SDS011;4343;53.648;10.098;2023-08-06T00:01:28;2.22;;;2.00;;
8610;SDS011;4343;53.648;10.098;2023-08-06T00:03:54;3.08;;;2.20;;
8610;SDS011;4343;53.648;10.098;2023-08-06T00:06:19;2.47;;;2.38;;
8610;SDS011;4343;53.648;10.098;2023-08-06T00:08:45;2.10;;;2.00;;
8610;SDS011;4343;53.648;10.098;2023-08-06T00:11:11;2.20;;;2.05;;
8610;SDS011;4343;53.648;10.098;2023-08-06T00:13:37;2.08;;;1.98;;
8610;SDS011;4343;53.648;10.098;2023-08-06T00:16:10;2.90;;;2.30;;
8610;SDS011;4343;53.648;10.098;2023-08-06T00:18:36;2.25;;;2.25;;
8610;SDS011;4343;53.648;10.098;2023-08-06T00:21:02;2.75;;;2.65;;
8610;SDS011;4343;53.648;10.098;2023-08-06T00:23:28;3.10;;;2.40;;
8610;SDS011;4343;53.648;10.098;2023-08-06T00:25:53;2.53;;;2.42;;
8610;SDS011;4343;53.648;10.098;2023-08-06T00:28:18;2.40;;;2.30;;
8610;SDS011;4343;53.648;10.098;2023-08-06T00:30:44;2.40;;;2.30;;
8610;SDS011;4343;53.648;10.098;2023-08-06T00:33:09;2.50;;;2.30;;
8610;SDS011;4343;53.648;10.098;2023-08-06T00:35:35;2.47;;;2.38;;
8610;SDS011;4343;53.648;10.098;2023-08-06T00:38:00;2.80;;;2.45;;
8610;SDS011;4343;53.648;10.098;2023-08-06T00:40:26;2.50;;;2.40;;
8610;SDS011;4343;53.648;10.098;2023-08-06T00:42:53;2.45;;;2.35;;
8610;SDS011;4343;53.648;10.098;2023-08-06T00:45:19;2.25;;;2.15;;
8610;SDS011;4343;53.648;10.098;2023-08-06T00:47:45;2.58;;;2.47;;
8610;SDS011;4343;53.648;10.098;2023-08-06T00:50:11;2.65;;;2.45;;
8610;SDS011;4343;53.648;10.098;2023-08-06T00:52:37;2.50;;;2.30;;
8610;SDS011;4343;53.648;10.098;2023-08-06T00:55:03;2.80;;;2.60;;
8610;SDS011;4343;53.648;10.098;2023-08-06T00:57:29;2.75;;;2.55;;
8610;SDS011;4343;53.648;10.098;2023-08-06T00:59:54;2.58;;;2.47;;
8610;SDS011;4343;53.648;10.098;2023-08-06T01:02:20;2.75;;;2.55;;
8610;SDS011;4343;53.648;10.098;2023-08-06T01:04:45;2.60;;;2.40;;
8610;SDS011;4343;53.648;10.098;2023-08-06T01:09:43;2.50;;;2.38;;
8610;SDS011;4343;53.648;10.098;2023-08-06T01:15:22;2.50;;;2.40;;
8610;SDS011;4343;53.648;10.098;2023-08-06T01:17:53;3.05;;;2.95;;
8610;SDS011;4343;53.648;10.098;2023-08-06T01:20:19;2.60;;;2.50;;
8610;SDS011;4343;53.648;10.098;2023-08-06T01:22:44;2.90;;;2.70;;
8610;SDS011;4343;53.648;10.098;2023-08-06T01:25:10;2.45;;;2.40;;
8610;SDS011;4343;53.648;10.098;2023-08-06T01:27:44;3.10;;;2.78;;
8610;SDS011;4343;53.648;10.098;2023-08-06T01:30:13;3.00;;;2.80;;
8610;SDS011;4343;53.648;10.098;2023-08-06T01:32:49;3.00;;;2.70;;
8610;SDS011;4343;53.648;10.098;2023-08-06T01:35:17;2.83;;;2.72;;
8610;SDS011;4343;53.648;10.098;2023-08-06T01:37:44;2.75;;;2.53;;
8610;SDS011;4343;53.648;10.098;2023-08-06T01:40:11;3.17;;;3.08;;
8610;SDS011;4343;53.648;10.098;2023-08-06T01:42:38;2.72;;;2.63;;
8610;SDS011;4343;53.648;10.098;2023-08-06T01:45:04;2.92;;;2.78;;
8610;SDS011;4343;53.648;10.098;2023-08-06T01:47:34;3.03;;;2.83;;
8610;SDS011;4343;53.648;10.098;2023-08-06T01:49:59;2.67;;;2.58;;
8610;SDS011;4343;53.648;10.098;2023-08-06T01:52:25;2.83;;;2.63;;
8610;SDS011;4343;53.648;10.098;2023-08-06T01:54:51;2.80;;;2.70;;
8610;SDS011;4343;53.648;10.098;2023-08-06T01:57:17;2.92;;;2.83;;
8610;SDS011;4343;53.648;10.098;2023-08-06T01:59:42;3.03;;;2.88;;
8610;SDS011;4343;53.648;10.098;2023-08-06T02:02:08;3.20;;;3.03;;
8610;SDS011;4343;53.648;10.098;2023-08-06T02:04:34;2.65;;;2.55;;
8610;SDS011;4343;53.648;10.098;2023-08-06T02:07:00;2.65;;;2.55;;
8610;SDS011;4343;53.648;10.098;2023-08-06T02:09:25;3.00;;;2.90;;
8610;SDS011;4343;53.648;10.098;2023-08-06T02:11:51;3.13;;;2.92;;
8610;SDS011;4343;53.648;10.098;2023-08-06T02:14:16;2.65;;;2.53;;
8610;SDS011;4343;53.648;10.098;2023-08-06T02:16:42;2.92;;;2.83;;
8610;SDS011;4343;53.648;10.098;2023-08-06T02:19:07;3.47;;;3.28;;
8610;SDS011;4343;53.648;10.098;2023-08-06T02:21:33;3.13;;;3.03;;
8610;SDS011;4343;53.648;10.098;2023-08-06T02:23:58;2.75;;;2.65;;
8610;SDS011;4343;53.648;10.098;2023-08-06T02:26:24;3.00;;;2.90;;
8610;SDS011;4343;53.648;10.098;2023-08-06T02:28:49;2.80;;;2.70;;
8610;SDS011;4343;53.648;10.098;2023-08-06T02:31:15;3.10;;;2.90;;
8610;SDS011;4343;53.648;10.098;2023-08-06T02:33:40;2.60;;;2.50;;
8610;SDS011;4343;53.648;10.098;2023-08-06T02:36:06;2.67;;;2.58;;
8610;SDS011;4343;53.648;10.098;2023-08-06T02:38:31;2.60;;;2.50;;
8610;SDS011;4343;53.648;10.098;2023-08-06T02:40:57;2.80;;;2.60;;
8610;SDS011;4343;53.648;10.098;2023-08-06T02:43:23;2.78;;;2.67;;
8610;SDS011;4343;53.648;10.098;2023-08-06T02:45:49;2.90;;;2.80;;
8610;SDS011;4343;53.648;10.098;2023-08-06T02:48:14;3.03;;;2.83;;
8610;SDS011;4343;53.648;10.098;2023-08-06T02:50:40;2.60;;;2.50;;
8610;SDS011;4343;53.648;10.098;2023-08-06T02:53:09;2.70;;;2.60;;
8610;SDS011;4343;53.648;10.098;2023-08-06T02:55:35;3.33;;;3.03;;
8610;SDS011;4343;53.648;10.098;2023-08-06T02:58:01;3.78;;;3.58;;
8610;SDS011;4343;53.648;10.098;2023-08-06T03:00:27;2.90;;;2.80;;
8610;SDS011;4343;53.648;10.098;2023-08-06T03:02:53;3.63;;;3.42;;
8610;SDS011;4343;53.648;10.098;2023-08-06T03:05:18;3.30;;;3.15;;
8610;SDS011;4343;53.648;10.098;2023-08-06T03:07:44;2.95;;;2.75;;
8610;SDS011;4343;53.648;10.098;2023-08-06T03:10:09;3.70;;;3.50;;
8610;SDS011;4343;53.648;10.098;2023-08-06T03:12:35;2.97;;;2.88;;
8610;SDS011;4343;53.648;10.098;2023-08-06T03:15:00;3.50;;;3.33;;
8610;SDS011;4343;53.648;10.098;2023-08-06T03:17:26;3.13;;;2.92;;
8610;SDS011;4343;53.648;10.098;2023-08-06T03:19:51;3.63;;;3.42;;
8610;SDS011;4343;53.648;10.098;2023-08-06T03:22:17;3.55;;;3.35;;
8610;SDS011;4343;53.648;10.098;2023-08-06T03:24:42;3.35;;;3.17;;
8610;SDS011;4343;53.648;10.098;2023-08-06T03:27:08;5.68;;;3.92;;
8610;SDS011;4343;53.648;10.098;2023-08-06T03:29:33;3.22;;;3.13;;
8610;SDS011;4343;53.648;10.098;2023-08-06T03:31:59;3.65;;;3.45;;
8610;SDS011;4343;53.648;10.098;2023-08-06T03:34:24;3.15;;;3.05;;
8610;SDS011;4343;53.648;10.098;2023-08-06T03:36:50;3.25;;;2.92;;
8610;SDS011;4343;53.648;10.098;2023-08-06T03:39:15;3.00;;;2.80;;
8610;SDS011;4343;53.648;10.098;2023-08-06T03:41:41;3.33;;;3.03;;
8610;SDS011;4343;53.648;10.098;2023-08-06T03:44:06;3.25;;;3.13;;
8610;SDS011;4343;53.648;10.098;2023-08-06T03:46:32;3.15;;;2.95;;
8610;SDS011;4343;53.648;10.098;2023-08-06T03:48:59;3.85;;;3.45;;
8610;SDS011;4343;53.648;10.098;2023-08-06T03:51:25;3.10;;;2.90;;
8610;SDS011;4343;53.648;10.098;2023-08-06T03:53:50;3.50;;;3.20;;
8610;SDS011;4343;53.648;10.098;2023-08-06T03:56:16;3.42;;;3.22;;
8610;SDS011;4343;53.648;10.098;2023-08-06T03:58:41;3.45;;;3.25;;
8610;SDS011;4343;53.648;10.098;2023-08-06T04:01:07;3.40;;;3.20;;
8610;SDS011;4343;53.648;10.098;2023-08-06T04:03:32;3.20;;;3.00;;
8610;SDS011;4343;53.648;10.098;2023-08-06T04:05:58;3.05;;;2.95;;
8610;SDS011;4343;53.648;10.098;2023-08-06T04:08:23;3.40;;;3.20;;
8610;SDS011;4343;53.648;10.098;2023-08-06T04:10:49;3.50;;;3.30;;
8610;SDS011;4343;53.648;10.098;2023-08-06T04:13:16;3.33;;;3.10;;
8610;SDS011;4343;53.648;10.098;2023-08-06T04:15:42;3.35;;;3.25;;
8610;SDS011;4343;53.648;10.098;2023-08-06T04:18:07;3.42;;;3.22;;
8610;SDS011;4343;53.648;10.098;2023-08-06T04:20:33;3.47;;;3.22;;
8610;SDS011;4343;53.648;10.098;2023-08-06T04:22:58;2.88;;;2.67;;
8610;SDS011;4343;53.648;10.098;2023-08-06T04:25:24;3.22;;;3.03;;
8610;SDS011;4343;53.648;10.098;2023-08-06T04:27:50;4.32;;;3.53;;
8610;SDS011;4343;53.648;10.098;2023-08-06T04:30:15;3.38;;;3.05;;
8610;SDS011;4343;53.648;10.098;2023-08-06T04:32:42;3.55;;;3.25;;
8610;SDS011;4343;53.648;10.098;2023-08-06T04:35:07;4.35;;;3.95;;
8610;SDS011;4343;53.648;10.098;2023-08-06T04:37:33;4.93;;;3.05;;
8610;SDS011;4343;53.648;10.098;2023-08-06T04:39:58;3.58;;;3.30;;
8610;SDS011;4343;53.648;10.098;2023-08-06T04:42:24;3.80;;;3.53;;
8610;SDS011;4343;53.648;10.098;2023-08-06T04:44:50;3.15;;;2.95;;
8610;SDS011;4343;53.648;10.098;2023-08-06T04:47:15;3.42;;;3.25;;
8610;SDS011;4343;53.648;10.098;2023-08-06T04:49:41;3.53;;;3.22;;
8610;SDS011;4343;53.648;10.098;2023-08-06T04:52:06;3.83;;;3.60;;
8610;SDS011;4343;53.648;10.098;2023-08-06T04:54:32;3.72;;;3.53;;
8610;SDS011;4343;53.648;10.098;2023-08-06T04:56:58;3.45;;;3.30;;
8610;SDS011;4343;53.648;10.098;2023-08-06T04:59:24;3.78;;;3.55;;
8610;SDS011;4343;53.648;10.098;2023-08-06T05:01:49;3.25;;;3.15;;
8610;SDS011;4343;53.648;10.098;2023-08-06T05:04:14;3.67;;;3.42;;
8610;SDS011;4343;53.648;10.098;2023-08-06T05:06:40;3.13;;;3.03;;
8610;SDS011;4343;53.648;10.098;2023-08-06T05:09:06;3.60;;;3.30;;
8610;SDS011;4343;53.648;10.098;2023-08-06T05:11:31;3.28;;;3.17;;
8610;SDS011;4343;53.648;10.098;2023-08-06T05:13:57;3.78;;;3.58;;
8610;SDS011;4343;53.648;10.098;2023-08-06T05:16:23;3.88;;;3.58;;
8610;SDS011;4343;53.648;10.098;2023-08-06T05:18:48;3.90;;;3.60;;
8610;SDS011;4343;53.648;10.098;2023-08-06T05:21:14;3.72;;;3.53;;
8610;SDS011;4343;53.648;10.098;2023-08-06T05:23:41;3.78;;;3.45;;
8610;SDS011;4343;53.648;10.098;2023-08-06T05:26:07;3.45;;;3.25;;
8610;SDS011;4343;53.648;10.098;2023-08-06T05:28:32;3.70;;;3.47;;
8610;SDS011;4343;53.648;10.098;2023-08-06T05:31:02;6.30;;;3.80;;
8610;SDS011;4343;53.648;10.098;2023-08-06T05:33:28;3.63;;;3.40;;
8610;SDS011;4343;53.648;10.098;2023-08-06T05:35:53;4.30;;;3.88;;
8610;SDS011;4343;53.648;10.098;2023-08-06T05:38:19;4.07;;;3.88;;
8610;SDS011;4343;53.648;10.098;2023-08-06T05:40:45;4.20;;;3.53;;
8610;SDS011;4343;53.648;10.098;2023-08-06T05:43:10;3.83;;;3.55;;
8610;SDS011;4343;53.648;10.098;2023-08-06T05:45:36;4.28;;;3.95;;
8610;SDS011;4343;53.648;10.098;2023-08-06T05:48:01;3.47;;;3.28;;
8610;SDS011;4343;53.648;10.098;2023-08-06T05:50:27;3.67;;;3.47;;
8610;SDS011;4343;53.648;10.098;2023-08-06T05:52:52;4.00;;;3.70;;
8610;SDS011;4343;53.648;10.098;2023-08-06T05:55:18;4.07;;;3.72;;
8610;SDS011;4343;53.648;10.098;2023-08-06T05:57:45;3.75;;;3.50;;
8610;SDS011;4343;53.648;10.098;2023-08-06T06:00:10;4.38;;;3.78;;
8610;SDS011;4343;53.648;10.098;2023-08-06T06:02:36;4.95;;;4.57;;
8610;SDS011;4343;53.648;10.098;2023-08-06T06:05:02;4.07;;;3.75;;
8610;SDS011;4343;53.648;10.098;2023-08-06T06:07:27;4.50;;;4.20;;
8610;SDS011;4343;53.648;10.098;2023-08-06T06:09:53;4.20;;;3.90;;
8610;SDS011;4343;53.648;10.098;2023-08-06T06:12:18;4.05;;;3.85;;
8610;SDS011;4343;53.648;10.098;2023-08-06T06:14:44;4.43;;;4.13;;
8610;SDS011;4343;53.648;10.098;2023-08-06T06:17:09;4.20;;;3.92;;
8610;SDS011;4343;53.648;10.098;2023-08-06T06:19:35;4.95;;;3.67;;
8610;SDS011;4343;53.648;10.098;2023-08-06T06:22:00;4.53;;;4.05;;
8610;SDS011;4343;53.648;10.098;2023-08-06T06:24:26;4.25;;;3.95;;
8610;SDS011;4343;53.648;10.098;2023-08-06T06:26:51;4.43;;;4.13;;
8610;SDS011;4343;53.648;10.098;2023-08-06T06:29:17;3.92;;;3.63;;
8610;SDS011;4343;53.648;10.098;2023-08-06T06:31:42;4.85;;;4.45;;
8610;SDS011;4343;53.648;10.098;2023-08-06T06:34:08;4.05;;;3.75;;
8610;SDS011;4343;53.648;10.098;2023-08-06T06:36:33;4.40;;;4.00;;
8610;SDS011;4343;53.648;10.098;2023-08-06T06:38:59;4.40;;;4.10;;
8610;SDS011;4343;53.648;10.098;2023-08-06T06:41:24;4.68;;;4.38;;
8610;SDS011;4343;53.648;10.098;2023-08-06T06:43:51;4.30;;;3.95;;
8610;SDS011;4343;53.648;10.098;2023-08-06T06:46:16;4.45;;;4.10;;
8610;SDS011;4343;53.648;10.098;2023-08-06T06:48:42;4.10;;;3.90;;
8610;SDS011;4343;53.648;10.098;2023-08-06T06:51:07;4.35;;;4.15;;
8610;SDS011;4343;53.648;10.098;2023-08-06T06:53:33;5.03;;;4.53;;
8610;SDS011;4343;53.648;10.098;2023-08-06T06:56:02;5.00;;;4.53;;
8610;SDS011;4343;53.648;10.098;2023-08-06T06:58:29;4.75;;;4.35;;
8610;SDS011;4343;53.648;10.098;2023-08-06T07:00:55;4.30;;;3.90;;
8610;SDS011;4343;53.648;10.098;2023-08-06T07:03:20;4.70;;;4.30;;
8610;SDS011;4343;53.648;10.098;2023-08-06T07:05:46;5.45;;;4.45;;
8610;SDS011;4343;53.648;10.098;2023-08-06T07:08:11;5.18;;;4.50;;
8610;SDS011;4343;53.648;10.098;2023-08-06T07:10:37;5.82;;;4.82;;
8610;SDS011;4343;53.648;10.098;2023-08-06T07:13:03;4.60;;;4.30;;
8610;SDS011;4343;53.648;10.098;2023-08-06T07:15:28;5.00;;;4.53;;
8610;SDS011;4343;53.648;10.098;2023-08-06T07:17:54;4.90;;;4.50;;
8610;SDS011;4343;53.648;10.098;2023-08-06T07:20:20;4.65;;;4.35;;
8610;SDS011;4343;53.648;10.098;2023-08-06T07:22:45;4.30;;;4.00;;
8610;SDS011;4343;53.648;10.098;2023-08-06T07:25:11;4.63;;;4.22;;
8610;SDS011;4343;53.648;10.098;2023-08-06T07:27:36;4.80;;;4.50;;
8610;SDS011;4343;53.648;10.098;2023-08-06T07:30:02;4.68;;;4.28;;
8610;SDS011;4343;53.648;10.098;2023-08-06T07:32:30;4.57;;;4.20;;
8610;SDS011;4343;53.648;10.098;2023-08-06T07:34:56;4.80;;;4.35;;
8610;SDS011;4343;53.648;10.098;2023-08-06T07:37:24;4.45;;;4.15;;
8610;SDS011;4343;53.648;10.098;2023-08-06T07:39:50;4.50;;;4.30;;
8610;SDS011;4343;53.648;10.098;2023-08-06T07:42:15;4.40;;;4.10;;
8610;SDS011;4343;53.648;10.098;2023-08-06T07:44:41;5.05;;;4.55;;
8610;SDS011;4343;53.648;10.098;2023-08-06T07:47:06;4.20;;;3.90;;
8610;SDS011;4343;53.648;10.098;2023-08-06T07:49:32;4.78;;;4.47;;
8610;SDS011;4343;53.648;10.098;2023-08-06T07:51:58;4.40;;;4.10;;
8610;SDS011;4343;53.648;10.098;2023-08-06T07:54:23;4.68;;;4.30;;
8610;SDS011;4343;53.648;10.098;2023-08-06T07:56:49;4.50;;;4.20;;
8610;SDS011;4343;53.648;10.098;2023-08-06T07:59:15;6.90;;;5.05;;
8610;SDS011;4343;53.648;10.098;2023-08-06T08:01:40;4.82;;;4.53;;
8610;SDS011;4343;53.648;10.098;2023-08-06T08:04:06;4.72;;;4.38;;
8610;SDS011;4343;53.648;10.098;2023-08-06T08:06:32;5.60;;;5.20;;
8610;SDS011;4343;53.648;10.098;2023-08-06T08:08:58;5.20;;;4.88;;
8610;SDS011;4343;53.648;10.098;2023-08-06T08:11:23;4.95;;;4.55;;
8610;SDS011;4343;53.648;10.098;2023-08-06T08:13:50;6.07;;;5.68;;
8610;SDS011;4343;53.648;10.098;2023-08-06T08:16:15;5.10;;;4.40;;
8610;SDS011;4343;53.648;10.098;2023-08-06T08:18:41;5.25;;;4.85;;
8610;SDS011;4343;53.648;10.098;2023-08-06T08:21:06;5.25;;;4.93;;
8610;SDS011;4343;53.648;10.098;2023-08-06T08:23:32;5.20;;;4.90;;
8610;SDS011;4343;53.648;10.098;2023-08-06T08:25:58;5.65;;;4.97;;
8610;SDS011;4343;53.648;10.098;2023-08-06T08:28:24;5.53;;;5.10;;
8610;SDS011;4343;53.648;10.098;2023-08-06T08:30:49;4.68;;;4.35;;
8610;SDS011;4343;53.648;10.098;2023-08-06T08:33:15;5.35;;;5.05;;
8610;SDS011;4343;53.648;10.098;2023-08-06T08:35:40;6.25;;;5.65;;
8610;SDS011;4343;53.648;10.098;2023-08-06T08:38:05;5.75;;;5.32;;
8610;SDS011;4343;53.648;10.098;2023-08-06T08:40:32;5.65;;;5.13;;
8610;SDS011;4343;53.648;10.098;2023-08-06T08:42:58;5.20;;;4.80;;
8610;SDS011;4343;53.648;10.098;2023-08-06T08:45:26;5.50;;;5.18;;
8610;SDS011;4343;53.648;10.098;2023-08-06T08:47:54;6.10;;;5.55;;
8610;SDS011;4343;53.648;10.098;2023-08-06T08:50:19;6.22;;;5.65;;
8610;SDS011;4343;53.648;10.098;2023-08-06T08:52:46;6.28;;;5.47;;
8610;SDS011;4343;53.648;10.098;2023-08-06T08:55:14;6.15;;;5.55;;
8610;SDS011;4343;53.648;10.098;2023-08-06T08:57:40;6.53;;;5.70;;
8610;SDS011;4343;53.648;10.098;2023-08-06T09:00:05;6.07;;;5.60;;
8610;SDS011;4343;53.648;10.098;2023-08-06T09:02:32;5.90;;;5.35;;
8610;SDS011;4343;53.648;10.098;2023-08-06T09:04:59;5.03;;;4.72;;
8610;SDS011;4343;53.648;10.098;2023-08-06T09:07:27;5.65;;;5.35;;
8610;SDS011;4343;53.648;10.098;2023-08-06T09:09:58;5.55;;;5.25;;
8610;SDS011;4343;53.648;10.098;2023-08-06T09:12:26;6.28;;;5.88;;
8610;SDS011;4343;53.648;10.098;2023-08-06T09:14:52;6.63;;;6.13;;
8610;SDS011;4343;53.648;10.098;2023-08-06T09:17:19;6.35;;;5.93;;
8610;SDS011;4343;53.648;10.098;2023-08-06T09:19:45;6.07;;;5.55;;
8610;SDS011;4343;53.648;10.098;2023-08-06T09:22:13;6.28;;;5.50;;
8610;SDS011;4343;53.648;10.098;2023-08-06T09:24:42;6.22;;;5.75;;
8610;SDS011;4343;53.648;10.098;2023-08-06T09:27:10;5.65;;;5.35;;
8610;SDS011;4343;53.648;10.098;2023-08-06T09:29:40;6.53;;;6.00;;
8610;SDS011;4343;53.648;10.098;2023-08-06T09:32:06;6.28;;;5.78;;
8610;SDS011;4343;53.648;10.098;2023-08-06T09:34:32;5.50;;;5.20;;
8610;SDS011;4343;53.648;10.098;2023-08-06T09:36:57;6.72;;;6.22;;
8610;SDS011;4343;53.648;10.098;2023-08-06T09:39:27;6.40;;;6.03;;
8610;SDS011;4343;53.648;10.098;2023-08-06T09:41:55;7.13;;;5.70;;
8610;SDS011;4343;53.648;10.098;2023-08-06T09:44:22;6.25;;;5.82;;
8610;SDS011;4343;53.648;10.098;2023-08-06T09:46:51;5.78;;;5.38;;
8610;SDS011;4343;53.648;10.098;2023-08-06T09:52:04;6.00;;;5.63;;
8610;SDS011;4343;53.648;10.098;2023-08-06T09:54:30;5.95;;;5.65;;
8610;SDS011;4343;53.648;10.098;2023-08-06T09:56:57;5.90;;;5.47;;
8610;SDS011;4343;53.648;10.098;2023-08-06T09:59:23;6.13;;;5.63;;
8610;SDS011;4343;53.648;10.098;2023-08-06T10:01:49;6.07;;;5.68;;
8610;SDS011;4343;53.648;10.098;2023-08-06T10:04:15;6.03;;;5.60;;
8610;SDS011;4343;53.648;10.098;2023-08-06T10:06:46;6.50;;;5.93;;
8610;SDS011;4343;53.648;10.098;2023-08-06T10:09:12;5.68;;;5.22;;
8610;SDS011;4343;53.648;10.098;2023-08-06T10:11:38;6.60;;;6.10;;
8610;SDS011;4343;53.648;10.098;2023-08-06T10:14:16;7.05;;;6.55;;
8610;SDS011;4343;53.648;10.098;2023-08-06T10:16:46;6.20;;;5.80;;
8610;SDS011;4343;53.648;10.098;2023-08-06T10:19:13;6.10;;;5.70;;
8610;SDS011;4343;53.648;10.098;2023-08-06T10:21:40;6.57;;;6.07;;
8610;SDS011;4343;53.648;10.098;2023-08-06T10:24:08;5.90;;;5.60;;
8610;SDS011;4343;53.648;10.098;2023-08-06T10:26:35;6.03;;;5.63;;
8610;SDS011;4343;53.648;10.098;2023-08-06T10:29:01;6.53;;;6.00;;
8610;SDS011;4343;53.648;10.098;2023-08-06T10:34:23;5.75;;;5.35;;
8610;SDS011;4343;53.648;10.098;2023-08-06T10:36:49;6.63;;;6.22;;
8610;SDS011;4343;53.648;10.098;2023-08-06T10:39:14;6.97;;;6.28;;
8610;SDS011;4343;53.648;10.098;2023-08-06T10:41:42;6.47;;;5.97;;
8610;SDS011;4343;53.648;10.098;2023-08-06T10:44:09;6.57;;;5.97;;
8610;SDS011;4343;53.648;10.098;2023-08-06T10:46:35;6.35;;;5.88;;
8610;SDS011;4343;53.648;10.098;2023-08-06T10:49:01;6.65;;;6.15;;
8610;SDS011;4343;53.648;10.098;2023-08-06T10:51:28;6.68;;;6.22;;
8610;SDS011;4343;53.648;10.098;2023-08-06T10:53:54;6.30;;;5.70;;
8610;SDS011;4343;53.648;10.098;2023-08-06T10:56:20;6.05;;;5.70;;
8610;SDS011;4343;53.648;10.098;2023-08-06T10:58:51;6.18;;;5.68;;
8610;SDS011;4343;53.648;10.098;2023-08-06T11:01:19;6.07;;;5.68;;
8610;SDS011;4343;53.648;10.098;2023-08-06T11:03:45;5.50;;;5.10;;
8610;SDS011;4343;53.648;10.098;2023-08-06T11:06:16;5.60;;;5.20;;
8610;SDS011;4343;53.648;10.098;2023-08-06T11:08:52;6.15;;;5.63;;
8610;SDS011;4343;53.648;10.098;2023-08-06T11:11:19;6.10;;;5.70;;
8610;SDS011;4343;53.648;10.098;2023-08-06T11:13:46;5.70;;;5.20;;
8610;SDS011;4343;53.648;10.098;2023-08-06T11:16:16;6.05;;;5.55;;
8610;SDS011;4343;53.648;10.098;2023-08-06T11:18:43;6.07;;;5.57;;
8610;SDS011;4343;53.648;10.098;2023-08-06T11:21:09;5.47;;;5.20;;
8610;SDS011;4343;53.648;10.098;2023-08-06T11:23:35;6.03;;;5.57;;
8610;SDS011;4343;53.648;10.098;2023-08-06T11:26:01;6.32;;;5.90;;
8610;SDS011;4343;53.648;10.098;2023-08-06T11:28:27;5.53;;;5.22;;
8610;SDS011;4343;53.648;10.098;2023-08-06T11:30:52;8.82;;;6.60;;
8610;SDS011;4343;53.648;10.098;2023-08-06T11:33:23;5.93;;;5.63;;
8610;SDS011;4343;53.648;10.098;2023-08-06T11:35:53;5.35;;;4.97;;
8610;SDS011;4343;53.648;10.098;2023-08-06T11:38:20;6.30;;;5.95;;
8610;SDS011;4343;53.648;10.098;2023-08-06T11:40:50;5.93;;;5.55;;
8610;SDS011;4343;53.648;10.098;2023-08-06T11:43:17;6.22;;;5.82;;
8610;SDS011;4343;53.648;10.098;2023-08-06T11:45:44;5.95;;;5.47;;
8610;SDS011;4343;53.648;10.098;2023-08-06T11:48:09;6.25;;;5.82;;
8610;SDS011;4343;53.648;10.098;2023-08-06T11:50:38;6.00;;;5.45;;
8610;SDS011;4343;53.648;10.098;2023-08-06T11:53:04;5.80;;;5.40;;
8610;SDS011;4343;53.648;10.098;2023-08-06T11:55:30;6.00;;;5.50;;
8610;SDS011;4343;53.648;10.098;2023-08-06T11:57:56;9.05;;;6.20;;
8610;SDS011;4343;53.648;10.098;2023-08-06T12:00:25;6.18;;;5.70;;
8610;SDS011;4343;53.648;10.098;2023-08-06T12:02:51;5.95;;;5.55;;
8610;SDS011;4343;53.648;10.098;2023-08-06T12:05:22;6.05;;;5.57;;
8610;SDS011;4343;53.648;10.098;2023-08-06T12:07:57;5.70;;;5.35;;
8610;SDS011;4343;53.648;10.098;2023-08-06T12:10:24;6.32;;;5.72;;
8610;SDS011;4343;53.648;10.098;2023-08-06T12:12:52;6.20;;;5.70;;
8610;SDS011;4343;53.648;10.098;2023-08-06T12:15:18;5.22;;;4.93;;
8610;SDS011;4343;53.648;10.098;2023-08-06T12:17:44;5.88;;;5.40;;
8610;SDS011;4343;53.648;10.098;2023-08-06T12:20:10;5.70;;;5.20;;
8610;SDS011;4343;53.648;10.098;2023-08-06T12:22:36;5.15;;;4.72;;
8610;SDS011;4343;53.648;10.098;2023-08-06T12:25:04;5.20;;;4.90;;
8610;SDS011;4343;53.648;10.098;2023-08-06T12:27:33;4.95;;;4.55;;
8610;SDS011;4343;53.648;10.098;2023-08-06T12:30:02;5.50;;;5.13;;
8610;SDS011;4343;53.648;10.098;2023-08-06T12:32:28;5.60;;;5.20;;
8610;SDS011;4343;53.648;10.098;2023-08-06T12:34:54;5.05;;;4.70;;
8610;SDS011;4343;53.648;10.098;2023-08-06T12:37:19;5.43;;;4.90;;
8610;SDS011;4343;53.648;10.098;2023-08-06T12:39:45;5.68;;;5.18;;
8610;SDS011;4343;53.648;10.098;2023-08-06T12:42:10;5.40;;;5.05;;
8610;SDS011;4343;53.648;10.098;2023-08-06T12:44:36;5.70;;;5.30;;
8610;SDS011;4343;53.648;10.098;2023-08-06T12:47:02;5.93;;;5.47;;
8610;SDS011;4343;53.648;10.098;2023-08-06T12:49:27;5.68;;;5.22;;
8610;SDS011;4343;53.648;10.098;2023-08-06T12:51:54;6.00;;;5.50;;
8610;SDS011;4343;53.648;10.098;2023-08-06T12:54:21;5.88;;;5.47;;
8610;SDS011;4343;53.648;10.098;2023-08-06T12:56:47;5.43;;;5.07;;
8610;SDS011;4343;53.648;10.098;2023-08-06T12:59:14;6.32;;;5.68;;
8610;SDS011;4343;53.648;10.098;2023-08-06T13:01:41;5.72;;;5.32;;
8610;SDS011;4343;53.648;10.098;2023-08-06T13:04:06;6.78;;;6.18;;
8610;SDS011;4343;53.648;10.098;2023-08-06T13:06:32;5.53;;;5.18;;
8610;SDS011;4343;53.648;10.098;2023-08-06T13:09:10;6.15;;;5.65;;
8610;SDS011;4343;53.648;10.098;2023-08-06T13:11:36;6.60;;;5.75;;
8610;SDS011;4343;53.648;10.098;2023-08-06T13:14:06;6.05;;;5.43;;
8610;SDS011;4343;53.648;10.098;2023-08-06T13:16:36;5.22;;;4.82;;
8610;SDS011;4343;53.648;10.098;2023-08-06T13:19:04;5.90;;;5.00;;
8610;SDS011;4343;53.648;10.098;2023-08-06T13:21:34;5.15;;;4.65;;
8610;SDS011;4343;53.648;10.098;2023-08-06T13:24:01;4.80;;;4.40;;
8610;SDS011;4343;53.648;10.098;2023-08-06T13:26:30;4.15;;;3.95;;
8610;SDS011;4343;53.648;10.098;2023-08-06T13:28:56;4.65;;;4.30;;
8610;SDS011;4343;53.648;10.098;2023-08-06T13:31:23;3.72;;;3.50;;
8610;SDS011;4343;53.648;10.098;2023-08-06T13:33:48;3.90;;;3.70;;
8610;SDS011;4343;53.648;10.098;2023-08-06T13:36:15;3.88;;;3.58;;
8610;SDS011;4343;53.648;10.098;2023-08-06T13:38:43;4.03;;;3.65;;
8610;SDS011;4343;53.648;10.098;2023-08-06T13:41:09;3.53;;;3.22;;
8610;SDS011;4343;53.648;10.098;2023-08-06T13:43:34;4.53;;;3.90;;
8610;SDS011;4343;53.648;10.098;2023-08-06T13:46:00;3.20;;;3.00;;
8610;SDS011;4343;53.648;10.098;2023-08-06T13:48:26;4.10;;;3.70;;
8610;SDS011;4343;53.648;10.098;2023-08-06T13:50:52;3.83;;;3.53;;
8610;SDS011;4343;53.648;10.098;2023-08-06T13:53:17;3.72;;;3.28;;
8610;SDS011;4343;53.648;10.098;2023-08-06T13:55:43;3.50;;;3.30;;
8610;SDS011;4343;53.648;10.098;2023-08-06T13:58:08;3.40;;;3.28;;
8610;SDS011;4343;53.648;10.098;2023-08-06T14:00:35;3.33;;;3.13;;
8610;SDS011;4343;53.648;10.098;2023-08-06T14:03:01;3.50;;;3.20;;
8610;SDS011;4343;53.648;10.098;2023-08-06T14:05:27;3.40;;;3.20;;
8610;SDS011;4343;53.648;10.098;2023-08-06T14:07:53;3.72;;;3.38;;
8610;SDS011;4343;53.648;10.098;2023-08-06T14:10:18;4.30;;;3.33;;
8610;SDS011;4343;53.648;10.098;2023-08-06T14:12:44;3.22;;;3.03;;
8610;SDS011;4343;53.648;10.098;2023-08-06T14:15:10;3.63;;;2.80;;
8610;SDS011;4343;53.648;10.098;2023-08-06T14:17:36;3.20;;;3.00;;
8610;SDS011;4343;53.648;10.098;2023-08-06T14:20:01;3.42;;;3.13;;
8610;SDS011;4343;53.648;10.098;2023-08-06T14:22:29;2.90;;;2.70;;
8610;SDS011;4343;53.648;10.098;2023-08-06T14:24:58;3.88;;;3.00;;
8610;SDS011;4343;53.648;10.098;2023-08-06T14:27:24;2.90;;;2.70;;
8610;SDS011;4343;53.648;10.098;2023-08-06T14:29:49;2.60;;;2.50;;
8610;SDS011;4343;53.648;10.098;2023-08-06T14:32:15;2.65;;;2.55;;
8610;SDS011;4343;53.648;10.098;2023-08-06T14:34:43;2.28;;;2.17;;
8610;SDS011;4343;53.648;10.098;2023-08-06T14:37:09;2.80;;;2.60;;
8610;SDS011;4343;53.648;10.098;2023-08-06T14:39:34;2.72;;;2.58;;
8610;SDS011;4343;53.648;10.098;2023-08-06T14:42:00;2.60;;;2.50;;
8610;SDS011;4343;53.648;10.098;2023-08-06T14:44:25;2.80;;;2.60;;
8610;SDS011;4343;53.648;10.098;2023-08-06T14:46:51;2.90;;;2.70;;
8610;SDS011;4343;53.648;10.098;2023-08-06T14:49:16;2.65;;;2.45;;
8610;SDS011;4343;53.648;10.098;2023-08-06T14:51:42;2.83;;;2.58;;
8610;SDS011;4343;53.648;10.098;2023-08-06T14:54:07;2.50;;;2.40;;
8610;SDS011;4343;53.648;10.098;2023-08-06T14:56:33;2.20;;;2.10;;
8610;SDS011;4343;53.648;10.098;2023-08-06T14:58:58;3.00;;;2.70;;
8610;SDS011;4343;53.648;10.098;2023-08-06T15:01:24;3.10;;;2.40;;
8610;SDS011;4343;53.648;10.098;2023-08-06T15:03:49;2.92;;;2.20;;
8610;SDS011;4343;53.648;10.098;2023-08-06T15:06:15;2.50;;;2.40;;